Frezya S — H9FC — position and weather

sailwx.info

Track history (hours):
 
Tides and Currents Weather Stations Pressure Air Temp Water Temp Dewpoint Dewpoint Depression Visibility Wind Speed Wind Dir Waves Ship Positions

Frezya S

Last reported at 2018-Jun-23 11:58 UTC. Time now 2018-Jun-23 12:24 UTC.
Position N 49°26' E 001°03'.

Length 120 m; draft 4.8 m.

Type: Cargo ship. MMSI: 374040000.

Date/timePositionNaut miles runAvg speedWind from/ knotsBaromVisibWave heightAir tempDewpointWater temp
2018-Jun-23 11:58N 49°26' E 001°03'0 0.0
2018-Jun-23 11:28N 49°26' E 001°03'0 0.0
2018-Jun-23 10:58N 49°26' E 001°03'0 0.0
2018-Jun-23 10:28N 49°26' E 001°03'0 0.0
2018-Jun-23 09:58N 49°26' E 001°03'0 0.0
2018-Jun-23 09:28N 49°26' E 001°03'0 0.0
2018-Jun-23 08:58N 49°26' E 001°03'0 0.0
2018-Jun-23 08:30N 49°26' E 001°03'1 1.2
2018-Jun-23 08:00N 49°26' E 001°02'510.4
2018-Jun-23 07:30N 49°21' E 000°59'4 7.8
2018-Jun-23 07:00N 49°24' E 000°56'5 9.6
2018-Jun-23 06:30N 49°29' E 000°53'510.8
2018-Jun-23 06:00N 49°24' E 000°52'4 8.9
2018-Jun-23 05:30N 49°28' E 000°49'510.1
2018-Jun-23 05:00N 49°31' E 000°43'5 9.1
2018-Jun-23 04:30N 49°27' E 000°40'4 8.9
2018-Jun-23 04:00N 49°27' E 000°33'5 9.3
2018-Jun-23 03:30N 49°27' E 000°26'611.9
2018-Jun-23 03:00N 49°26' E 000°17'611.2
2018-Jun-23 02:30N 49°26' E 000°08'510.0
2018-Jun-23 02:00N 49°27' E 000°01'5 9.3
2018-Jun-23 01:30N 49°29' W 000°06'5 9.0
2018-Jun-23 01:00N 49°30' W 000°13'4 8.9
2018-Jun-23 00:30N 49°29' W 000°19'4 8.5
2018-Jun-23 00:00N 49°29' W 000°26'4 7.0
2018-Jun-22 23:30N 49°29' W 000°31'1 1.7
2018-Jun-22 23:00N 49°29' W 000°30'1 1.8
2018-Jun-22 22:30N 49°30' W 000°29'1 1.6
2018-Jun-22 22:00N 49°30' W 000°28'1 1.3
2018-Jun-22 21:30N 49°30' W 000°27'1 1.3
2018-Jun-22 21:00N 49°30' W 000°26'1 1.3
2018-Jun-22 20:30N 49°31' W 000°25'4 8.3
2018-Jun-22 20:00N 49°35' W 000°25'510.5
2018-Jun-22 19:30N 49°40' W 000°23'510.0
2018-Jun-22 19:00N 49°45' W 000°25'5 9.1
2018-Jun-22 18:30N 49°50' W 000°25'5 9.8
2018-Jun-22 18:00N 49°54' W 000°21'5 9.2
2018-Jun-22 17:30N 49°58' W 000°18'5 9.2
2018-Jun-22 17:00N 50°03' W 000°15'4 8.9
2018-Jun-22 16:30N 50°07' W 000°13'4 8.8
2018-Jun-22 16:00N 50°11' W 000°10'5 9.0
2018-Jun-22 15:30N 50°15' W 000°08'5 9.2
2018-Jun-22 15:00N 50°20' W 000°07'4 8.8
2018-Jun-22 14:30N 50°23' W 000°03'5 9.1
2018-Jun-22 14:00N 50°27' W 000°00'5 9.8
2018-Jun-22 13:30N 50°29' E 000°07'510.3
2018-Jun-22 13:00N 50°31' E 000°14'510.8
2018-Jun-22 12:30N 50°34' E 000°21'611.4
2018-Jun-22 12:00N 50°37' E 000°30'611.6
2018-Jun-22 11:30N 50°40' E 000°37'611.7
2018-Jun-22 11:00N 50°43' E 000°45'611.6
2018-Jun-22 10:30N 50°47' E 000°52'611.3
2018-Jun-22 10:00N 50°50' E 000°59'810.7
2018-Jun-22 09:16N 50°55' E 001°09'310.2
2018-Jun-22 09:00N 50°57' E 001°12'5 9.7
2018-Jun-22 08:30N 50°60' E 001°18'5 9.3
2018-Jun-22 08:00N 51°03' E 001°24'5 9.2
2018-Jun-22 07:30N 51°06' E 001°30'5 9.4
2018-Jun-22 07:00N 51°09' E 001°36'5 9.0
2018-Jun-22 06:30N 51°11' E 001°41'4 8.8
2018-Jun-22 06:00N 51°14' E 001°46'5 9.9
2018-Jun-22 05:30N 51°19' E 001°50'510.5
2018-Jun-22 05:00N 51°23' E 001°54'611.2
2018-Jun-22 04:30N 51°28' E 001°59'611.6
2018-Jun-22 04:00N 51°33' E 002°04'611.4
2018-Jun-22 03:29N 51°37' E 002°11'1311.2
2018-Jun-22 02:19N 51°47' E 002°25'35 9.0
2018-Jun-21 22:26N 52°03' E 003°15'4 8.2
2018-Jun-21 22:00N 52°03' E 003°21'4 7.9
2018-Jun-21 21:30N 52°03' E 003°27'4 7.6
2018-Jun-21 20:59N 52°03' E 003°34'3 6.9
2018-Jun-21 20:30N 52°03' E 003°39'3 7.0
2018-Jun-21 20:00N 52°03' E 003°45'3 6.9
2018-Jun-21 19:30N 52°03' E 003°50'3 6.6
2018-Jun-21 19:00N 52°03' E 003°56'2 3.3
2018-Jun-21 18:30N 52°02' E 003°58'3 6.4
2018-Jun-21 18:00N 51°60' E 004°02'5 9.6
2018-Jun-21 17:30N 51°58' E 004°09'510.2
2018-Jun-21 17:00N 51°55' E 004°15'5 9.4
2018-Jun-21 16:30N 51°51' E 004°21'5 9.2
2018-Jun-21 16:00N 51°50' E 004°28'4 8.8
2018-Jun-21 15:29N 51°48' E 004°35'2 4.0
2018-Jun-21 14:57N 51°48' E 004°38'0 0.4
2018-Jun-21 14:29N 51°48' E 004°38'0 0.0
2018-Jun-21 13:47N 51°48' E 004°38'0 0.0
2018-Jun-21 13:17N 51°48' E 004°38'0 0.0
2018-Jun-21 12:59N 51°48' E 004°38'0 0.0
2018-Jun-21 12:28N 51°48' E 004°38'0 0.0
2018-Jun-21 11:59N 51°48' E 004°38'0 0.0
2018-Jun-21 11:26N 51°48' E 004°38'0 0.0
2018-Jun-21 10:57N 51°48' E 004°38'0 0.0
2018-Jun-21 10:31N 51°48' E 004°38'0 0.0
2018-Jun-21 10:00N 51°48' E 004°38'0 0.0
2018-Jun-21 09:30N 51°48' E 004°38'0 0.0
2018-Jun-21 08:58N 51°48' E 004°38'0 0.0
2018-Jun-21 08:26N 51°48' E 004°38'0 0.0
2018-Jun-21 08:00N 51°48' E 004°38'0 0.0
2018-Jun-21 07:27N 51°48' E 004°38'0 0.0
2018-Jun-21 06:57N 51°48' E 004°38'0 0.0
2018-Jun-21 06:26N 51°48' E 004°38'0 0.0
2018-Jun-21 05:56N 51°48' E 004°38'0 0.0
2018-Jun-21 05:29N 51°48' E 004°38'0 0.0
2018-Jun-21 05:00N 51°48' E 004°38'0 0.0
2018-Jun-21 03:26N 51°48' E 004°38'0 0.0
2018-Jun-21 03:00N 51°48' E 004°38'0 0.0
2018-Jun-21 02:30N 51°48' E 004°38'0 0.0
2018-Jun-21 02:00N 51°48' E 004°38'0 0.0
2018-Jun-21 01:30N 51°48' E 004°38'0 0.0
2018-Jun-21 00:54N 51°48' E 004°38'0 0.0
2018-Jun-21 00:27N 51°48' E 004°38'0 0.0
2018-Jun-21 00:01N 51°48' E 004°38'0 0.0
2018-Jun-20 23:20N 51°48' E 004°38'0 0.0
2018-Jun-20 23:00N 51°48' E 004°38'0 0.0
2018-Jun-20 22:30N 51°48' E 004°38'0 0.0
2018-Jun-20 22:01N 51°48' E 004°38'0 0.0
2018-Jun-20 21:30N 51°48' E 004°38'0 0.0
2018-Jun-20 21:01N 51°48' E 004°38'1 1.6
2018-Jun-20 20:30N 51°48' E 004°37'3 6.3
2018-Jun-20 20:01N 51°50' E 004°33'4 8.7
2018-Jun-20 19:30N 51°50' E 004°26'4 7.9
2018-Jun-20 19:00N 51°52' E 004°20'3 6.4
2018-Jun-20 18:30N 51°54' E 004°16'5 9.3
2018-Jun-20 18:00N 51°57' E 004°10'4 8.1
2018-Jun-20 17:30N 51°59' E 004°05'4 8.5
2018-Jun-20 17:00N 51°60' E 003°58'5 9.2
2018-Jun-20 16:30N 51°59' E 003°50'4 8.4
2018-Jun-20 16:00N 51°59' E 003°44'5 8.9
2018-Jun-20 15:30N 51°58' E 003°37'4 8.7
2018-Jun-20 15:00N 51°56' E 003°30'4 8.4
2018-Jun-20 14:30N 51°55' E 003°23'4 8.1
2018-Jun-20 13:59N 51°54' E 003°17'4 8.2
2018-Jun-20 13:30N 51°53' E 003°11'4 8.4
2018-Jun-20 13:00N 51°51' E 003°04'6 8.7
2018-Jun-20 12:20N 51°50' E 002°55'26 9.1
2018-Jun-20 09:27N 51°34' E 002°21'910.6
2018-Jun-20 08:38N 51°28' E 002°12'210.8
2018-Jun-20 08:29N 51°26' E 002°10'610.7
2018-Jun-20 07:57N 51°23' E 002°03'510.8
2018-Jun-20 07:30N 51°19' E 001°58'611.2
2018-Jun-20 07:00N 51°15' E 001°52'611.8
2018-Jun-20 06:30N 51°11' E 001°46'612.0
2018-Jun-20 06:00N 51°06' E 001°40'612.5
2018-Jun-20 05:30N 51°01' E 001°34'713.4
2018-Jun-20 05:00N 50°55' E 001°28'912.6
2018-Jun-20 04:20N 50°47' E 001°24'277 9.2
2018-Jun-18 22:07N 48°51' W 005°06'110.1
2018-Jun-18 21:59N 48°51' W 005°08'710.3
2018-Jun-18 21:20N 48°50' W 005°18'410.6
2018-Jun-18 20:58N 48°49' W 005°24'  
2018-Jun-16 03:59N 40°43' W 009°56'4 6.4
2018-Jun-16 03:26N 40°39' W 009°56'3 6.2
2018-Jun-16 02:59N 40°36' W 009°56'3 6.5
2018-Jun-16 02:30N 40°33' W 009°56'5 6.4
2018-Jun-16 01:48N 40°29' W 009°55'2 6.3
2018-Jun-16 01:30N 40°27' W 009°55'4 6.3
2018-Jun-16 00:49N 40°22' W 009°55'3 6.1
2018-Jun-16 00:21N 40°20' W 009°56'2 6.1
2018-Jun-16 00:00N 40°17' W 009°56'3 6.1
2018-Jun-15 23:30N 40°14' W 009°56'3 6.5
2018-Jun-15 23:00N 40°11' W 009°55'3 6.5
2018-Jun-15 22:30N 40°08' W 009°55'3 6.4
2018-Jun-15 22:00N 40°05' W 009°55'3 6.4
2018-Jun-15 21:30N 40°01' W 009°55'4 6.5
2018-Jun-15 20:57N 39°58' W 009°55'4 6.8
2018-Jun-15 20:25N 39°54' W 009°55'4 6.8
2018-Jun-15 19:47N 39°50' W 009°55'2 7.0
2018-Jun-15 19:30N 39°48' W 009°55'3 7.0
2018-Jun-15 19:00N 39°44' W 009°55'4 7.4
2018-Jun-15 18:30N 39°41' W 009°55'4 7.4
2018-Jun-15 18:00N 39°37' W 009°55'4 7.3
2018-Jun-15 17:30N 39°33' W 009°55'4 7.1
2018-Jun-15 16:59N 39°30' W 009°55'4 7.4
2018-Jun-15 16:29N 39°26' W 009°55'4 7.5
2018-Jun-15 15:59N 39°22' W 009°55'4 7.6
2018-Jun-15 15:30N 39°19' W 009°55'4 7.8
2018-Jun-15 14:58N 39°14' W 009°55'4 8.2
2018-Jun-15 14:30N 39°10' W 009°55'4 8.1
2018-Jun-15 14:00N 39°07' W 009°55'4 7.9
2018-Jun-15 13:30N 39°03' W 009°55'4 8.1
2018-Jun-15 13:00N 38°58' W 009°55'4 8.5
2018-Jun-15 12:30N 38°54' W 009°55'4 8.6
2018-Jun-15 11:59N 38°50' W 009°55'4 8.2
2018-Jun-15 11:30N 38°46' W 009°55'5 8.2
2018-Jun-15 10:53N 38°41' W 009°54'3 7.8
2018-Jun-15 10:30N 38°38' W 009°54'4 7.7
2018-Jun-15 10:00N 38°35' W 009°51'4 7.9
2018-Jun-15 09:30N 38°32' W 009°48'4 8.0
2018-Jun-15 09:00N 38°29' W 009°44'5 8.2
2018-Jun-15 08:21N 38°25' W 009°39'3 8.6
2018-Jun-15 07:57N 38°23' W 009°36'4 8.5
2018-Jun-15 07:30N 38°21' W 009°32'4 8.2
2018-Jun-15 06:59N 38°18' W 009°27'4 8.4
2018-Jun-15 06:30N 38°16' W 009°23'4 8.6
2018-Jun-15 06:00N 38°13' W 009°19'4 8.7
2018-Jun-15 05:30N 38°10' W 009°15'4 8.8
2018-Jun-15 05:00N 38°07' W 009°11'5 9.2
2018-Jun-15 04:30N 38°04' W 009°07'5 9.1
2018-Jun-15 04:00N 38°01' W 009°02'5 9.4
2018-Jun-15 03:30N 37°58' W 008°57'4 8.7
2018-Jun-15 03:00N 37°56' W 008°53'1 2.7
2018-Jun-15 02:30N 37°56' W 008°51'0 0.0
2018-Jun-15 02:00N 37°56' W 008°51'0 0.0
2018-Jun-15 01:30N 37°56' W 008°51'0 0.0
2018-Jun-15 01:00N 37°56' W 008°51'0 0.0
2018-Jun-15 00:30N 37°56' W 008°51'0 0.0
2018-Jun-15 00:00N 37°56' W 008°51'0 0.0
2018-Jun-14 23:30N 37°56' W 008°51'0 0.0
2018-Jun-14 23:00N 37°56' W 008°51'0 0.0
2018-Jun-14 22:30N 37°56' W 008°51'0 0.0
2018-Jun-14 22:00N 37°56' W 008°51'0 0.0
2018-Jun-14 21:30N 37°56' W 008°51'0 0.0
2018-Jun-14 21:00N 37°56' W 008°51'0 0.0
2018-Jun-14 20:30N 37°56' W 008°51'0 0.0
2018-Jun-14 20:00N 37°56' W 008°51'0 0.0
2018-Jun-14 19:30N 37°56' W 008°51'0 0.0
2018-Jun-14 19:00N 37°56' W 008°51'0 0.0
2018-Jun-14 18:30N 37°56' W 008°51'0 0.0
2018-Jun-14 18:00N 37°56' W 008°51'0 0.0
2018-Jun-14 17:30N 37°56' W 008°51'0 0.0
2018-Jun-14 17:00N 37°56' W 008°51'0 0.0
2018-Jun-14 16:30N 37°56' W 008°51'0 0.0
2018-Jun-14 16:00N 37°56' W 008°51'0 0.0
2018-Jun-14 15:30N 37°56' W 008°51'0 0.0
2018-Jun-14 15:00N 37°56' W 008°51'0 0.0
2018-Jun-14 14:30N 37°56' W 008°51'0 0.0
2018-Jun-14 14:00N 37°56' W 008°51'0 0.0
2018-Jun-14 13:30N 37°56' W 008°51'0 0.0
2018-Jun-14 13:00N 37°56' W 008°51'0 0.0
2018-Jun-14 12:30N 37°56' W 008°51'0 0.0
2018-Jun-14 12:00N 37°56' W 008°51'0 0.0
2018-Jun-14 11:30N 37°56' W 008°51'0 0.0
2018-Jun-14 11:00N 37°56' W 008°51'0 0.0
2018-Jun-14 10:30N 37°56' W 008°51'0 0.0
2018-Jun-14 10:00N 37°56' W 008°51'0 0.0
2018-Jun-14 09:30N 37°56' W 008°51'0 0.0
2018-Jun-14 09:00N 37°56' W 008°51'0 0.0
2018-Jun-14 08:30N 37°56' W 008°51'0 0.0
2018-Jun-14 08:00N 37°56' W 008°51'0 0.0
2018-Jun-14 07:30N 37°56' W 008°51'0 0.0
2018-Jun-14 06:57N 37°56' W 008°51'0 0.0
2018-Jun-14 06:30N 37°56' W 008°51'0 0.0
2018-Jun-14 05:57N 37°56' W 008°51'0 0.0
2018-Jun-14 05:30N 37°56' W 008°51'0 0.0
2018-Jun-14 05:00N 37°56' W 008°51'0 0.0
2018-Jun-14 04:30N 37°56' W 008°51'0 0.0
2018-Jun-14 04:00N 37°56' W 008°51'0 0.0
2018-Jun-14 03:30N 37°56' W 008°51'0 0.0
2018-Jun-14 03:00N 37°56' W 008°51'0 0.0
2018-Jun-14 02:30N 37°56' W 008°51'0 0.0
2018-Jun-14 02:00N 37°56' W 008°51'0 0.0
2018-Jun-14 01:30N 37°56' W 008°51'0 0.0
2018-Jun-14 01:00N 37°56' W 008°51'0 0.0
2018-Jun-14 00:30N 37°56' W 008°51'0 0.0
2018-Jun-14 00:00N 37°56' W 008°51'0 0.0
2018-Jun-13 23:30N 37°56' W 008°51'0 0.0
2018-Jun-13 23:00N 37°56' W 008°51'0 0.0
2018-Jun-13 22:27N 37°56' W 008°51'0 0.0
2018-Jun-13 22:00N 37°56' W 008°51'0 0.0
2018-Jun-13 21:30N 37°56' W 008°51'0 0.0
2018-Jun-13 21:00N 37°56' W 008°51'0 0.0
2018-Jun-13 20:30N 37°56' W 008°51'0 0.0
2018-Jun-13 20:00N 37°56' W 008°51'0 0.0
2018-Jun-13 19:30N 37°56' W 008°51'0 0.0
2018-Jun-13 19:00N 37°56' W 008°51'0 0.0
2018-Jun-13 18:30N 37°56' W 008°51'0 0.0
2018-Jun-13 18:00N 37°56' W 008°51'0 0.0
2018-Jun-13 17:30N 37°56' W 008°51'0 0.0
2018-Jun-13 17:00N 37°56' W 008°51'0 0.0
2018-Jun-13 16:30N 37°56' W 008°51'0 0.0
2018-Jun-13 16:00N 37°56' W 008°51'0 0.0
2018-Jun-13 15:30N 37°56' W 008°51'0 0.0
2018-Jun-13 15:00N 37°56' W 008°51'0 0.0
2018-Jun-13 14:30N 37°56' W 008°51'0 0.0
2018-Jun-13 14:00N 37°56' W 008°51'0 0.0
2018-Jun-13 13:30N 37°56' W 008°51'0 0.0
2018-Jun-13 12:57N 37°56' W 008°51'0 0.0
2018-Jun-13 12:30N 37°56' W 008°51'  
Track history (hours):
 
Tides and Currents Weather Stations Pressure Air Temp Water Temp Dewpoint Dewpoint Depression Visibility Wind Speed Wind Dir Waves Ship Positions

Frezya S

Last reported at 2018-Jun-23 11:58 UTC. Time now 2018-Jun-23 12:24 UTC.
Position N 49°26' E 001°03'.

Length 120 m; draft 4.8 m.

Type: Cargo ship. MMSI: 374040000.

Date/timePositionNaut miles runAvg speedWind from/ knotsBaromVisibWave heightAir tempDewpointWater temp
2018-Jun-23 11:58N 49°26' E 001°03'0 0.0
2018-Jun-23 11:28N 49°26' E 001°03'0 0.0
2018-Jun-23 10:58N 49°26' E 001°03'0 0.0
2018-Jun-23 10:28N 49°26' E 001°03'0 0.0
2018-Jun-23 09:58N 49°26' E 001°03'0 0.0
2018-Jun-23 09:28N 49°26' E 001°03'0 0.0
2018-Jun-23 08:58N 49°26' E 001°03'0 0.0
2018-Jun-23 08:30N 49°26' E 001°03'1 1.2
2018-Jun-23 08:00N 49°26' E 001°02'510.4
2018-Jun-23 07:30N 49°21' E 000°59'4 7.8
2018-Jun-23 07:00N 49°24' E 000°56'5 9.6
2018-Jun-23 06:30N 49°29' E 000°53'510.8
2018-Jun-23 06:00N 49°24' E 000°52'4 8.9
2018-Jun-23 05:30N 49°28' E 000°49'510.1
2018-Jun-23 05:00N 49°31' E 000°43'5 9.1
2018-Jun-23 04:30N 49°27' E 000°40'4 8.9
2018-Jun-23 04:00N 49°27' E 000°33'5 9.3
2018-Jun-23 03:30N 49°27' E 000°26'611.9
2018-Jun-23 03:00N 49°26' E 000°17'611.2
2018-Jun-23 02:30N 49°26' E 000°08'510.0
2018-Jun-23 02:00N 49°27' E 000°01'5 9.3
2018-Jun-23 01:30N 49°29' W 000°06'5 9.0
2018-Jun-23 01:00N 49°30' W 000°13'4 8.9
2018-Jun-23 00:30N 49°29' W 000°19'4 8.5
2018-Jun-23 00:00N 49°29' W 000°26'4 7.0
2018-Jun-22 23:30N 49°29' W 000°31'1 1.7
2018-Jun-22 23:00N 49°29' W 000°30'1 1.8
2018-Jun-22 22:30N 49°30' W 000°29'1 1.6
2018-Jun-22 22:00N 49°30' W 000°28'1 1.3
2018-Jun-22 21:30N 49°30' W 000°27'1 1.3
2018-Jun-22 21:00N 49°30' W 000°26'1 1.3
2018-Jun-22 20:30N 49°31' W 000°25'4 8.3
2018-Jun-22 20:00N 49°35' W 000°25'510.5
2018-Jun-22 19:30N 49°40' W 000°23'510.0
2018-Jun-22 19:00N 49°45' W 000°25'5 9.1
2018-Jun-22 18:30N 49°50' W 000°25'5 9.8
2018-Jun-22 18:00N 49°54' W 000°21'5 9.2
2018-Jun-22 17:30N 49°58' W 000°18'5 9.2
2018-Jun-22 17:00N 50°03' W 000°15'4 8.9
2018-Jun-22 16:30N 50°07' W 000°13'4 8.8
2018-Jun-22 16:00N 50°11' W 000°10'5 9.0
2018-Jun-22 15:30N 50°15' W 000°08'5 9.2
2018-Jun-22 15:00N 50°20' W 000°07'4 8.8
2018-Jun-22 14:30N 50°23' W 000°03'5 9.1
2018-Jun-22 14:00N 50°27' W 000°00'5 9.8
2018-Jun-22 13:30N 50°29' E 000°07'510.3
2018-Jun-22 13:00N 50°31' E 000°14'510.8
2018-Jun-22 12:30N 50°34' E 000°21'611.4
2018-Jun-22 12:00N 50°37' E 000°30'611.6
2018-Jun-22 11:30N 50°40' E 000°37'611.7
2018-Jun-22 11:00N 50°43' E 000°45'611.6
2018-Jun-22 10:30N 50°47' E 000°52'611.3
2018-Jun-22 10:00N 50°50' E 000°59'810.7
2018-Jun-22 09:16N 50°55' E 001°09'310.2
2018-Jun-22 09:00N 50°57' E 001°12'5 9.7
2018-Jun-22 08:30N 50°60' E 001°18'5 9.3
2018-Jun-22 08:00N 51°03' E 001°24'5 9.2
2018-Jun-22 07:30N 51°06' E 001°30'5 9.4
2018-Jun-22 07:00N 51°09' E 001°36'5 9.0
2018-Jun-22 06:30N 51°11' E 001°41'4 8.8
2018-Jun-22 06:00N 51°14' E 001°46'5 9.9
2018-Jun-22 05:30N 51°19' E 001°50'510.5
2018-Jun-22 05:00N 51°23' E 001°54'611.2
2018-Jun-22 04:30N 51°28' E 001°59'611.6
2018-Jun-22 04:00N 51°33' E 002°04'611.4
2018-Jun-22 03:29N 51°37' E 002°11'1311.2
2018-Jun-22 02:19N 51°47' E 002°25'35 9.0
2018-Jun-21 22:26N 52°03' E 003°15'4 8.2
2018-Jun-21 22:00N 52°03' E 003°21'4 7.9
2018-Jun-21 21:30N 52°03' E 003°27'4 7.6
2018-Jun-21 20:59N 52°03' E 003°34'3 6.9
2018-Jun-21 20:30N 52°03' E 003°39'3 7.0
2018-Jun-21 20:00N 52°03' E 003°45'3 6.9
2018-Jun-21 19:30N 52°03' E 003°50'3 6.6
2018-Jun-21 19:00N 52°03' E 003°56'2 3.3
2018-Jun-21 18:30N 52°02' E 003°58'3 6.4
2018-Jun-21 18:00N 51°60' E 004°02'5 9.6
2018-Jun-21 17:30N 51°58' E 004°09'510.2
2018-Jun-21 17:00N 51°55' E 004°15'5 9.4
2018-Jun-21 16:30N 51°51' E 004°21'5 9.2
2018-Jun-21 16:00N 51°50' E 004°28'4 8.8
2018-Jun-21 15:29N 51°48' E 004°35'2 4.0
2018-Jun-21 14:57N 51°48' E 004°38'0 0.4
2018-Jun-21 14:29N 51°48' E 004°38'0 0.0
2018-Jun-21 13:47N 51°48' E 004°38'0 0.0
2018-Jun-21 13:17N 51°48' E 004°38'0 0.0
2018-Jun-21 12:59N 51°48' E 004°38'0 0.0
2018-Jun-21 12:28N 51°48' E 004°38'0 0.0
2018-Jun-21 11:59N 51°48' E 004°38'0 0.0
2018-Jun-21 11:26N 51°48' E 004°38'0 0.0
2018-Jun-21 10:57N 51°48' E 004°38'0 0.0
2018-Jun-21 10:31N 51°48' E 004°38'0 0.0
2018-Jun-21 10:00N 51°48' E 004°38'0 0.0
2018-Jun-21 09:30N 51°48' E 004°38'0 0.0
2018-Jun-21 08:58N 51°48' E 004°38'0 0.0
2018-Jun-21 08:26N 51°48' E 004°38'0 0.0
2018-Jun-21 08:00N 51°48' E 004°38'0 0.0
2018-Jun-21 07:27N 51°48' E 004°38'0 0.0
2018-Jun-21 06:57N 51°48' E 004°38'0 0.0
2018-Jun-21 06:26N 51°48' E 004°38'0 0.0
2018-Jun-21 05:56N 51°48' E 004°38'0 0.0
2018-Jun-21 05:29N 51°48' E 004°38'0 0.0
2018-Jun-21 05:00N 51°48' E 004°38'0 0.0
2018-Jun-21 03:26N 51°48' E 004°38'0 0.0
2018-Jun-21 03:00N 51°48' E 004°38'0 0.0
2018-Jun-21 02:30N 51°48' E 004°38'0 0.0
2018-Jun-21 02:00N 51°48' E 004°38'0 0.0
2018-Jun-21 01:30N 51°48' E 004°38'0 0.0
2018-Jun-21 00:54N 51°48' E 004°38'0 0.0
2018-Jun-21 00:27N 51°48' E 004°38'0 0.0
2018-Jun-21 00:01N 51°48' E 004°38'0 0.0
2018-Jun-20 23:20N 51°48' E 004°38'0 0.0
2018-Jun-20 23:00N 51°48' E 004°38'0 0.0
2018-Jun-20 22:30N 51°48' E 004°38'0 0.0
2018-Jun-20 22:01N 51°48' E 004°38'0 0.0
2018-Jun-20 21:30N 51°48' E 004°38'0 0.0
2018-Jun-20 21:01N 51°48' E 004°38'1 1.6
2018-Jun-20 20:30N 51°48' E 004°37'3 6.3
2018-Jun-20 20:01N 51°50' E 004°33'4 8.7
2018-Jun-20 19:30N 51°50' E 004°26'4 7.9
2018-Jun-20 19:00N 51°52' E 004°20'3 6.4
2018-Jun-20 18:30N 51°54' E 004°16'5 9.3
2018-Jun-20 18:00N 51°57' E 004°10'4 8.1
2018-Jun-20 17:30N 51°59' E 004°05'4 8.5
2018-Jun-20 17:00N 51°60' E 003°58'5 9.2
2018-Jun-20 16:30N 51°59' E 003°50'4 8.4
2018-Jun-20 16:00N 51°59' E 003°44'5 8.9
2018-Jun-20 15:30N 51°58' E 003°37'4 8.7
2018-Jun-20 15:00N 51°56' E 003°30'4 8.4
2018-Jun-20 14:30N 51°55' E 003°23'4 8.1
2018-Jun-20 13:59N 51°54' E 003°17'4 8.2
2018-Jun-20 13:30N 51°53' E 003°11'4 8.4
2018-Jun-20 13:00N 51°51' E 003°04'6 8.7
2018-Jun-20 12:20N 51°50' E 002°55'26 9.1
2018-Jun-20 09:27N 51°34' E 002°21'910.6
2018-Jun-20 08:38N 51°28' E 002°12'210.8
2018-Jun-20 08:29N 51°26' E 002°10'610.7
2018-Jun-20 07:57N 51°23' E 002°03'510.8
2018-Jun-20 07:30N 51°19' E 001°58'611.2
2018-Jun-20 07:00N 51°15' E 001°52'611.8
2018-Jun-20 06:30N 51°11' E 001°46'612.0
2018-Jun-20 06:00N 51°06' E 001°40'612.5
2018-Jun-20 05:30N 51°01' E 001°34'713.4
2018-Jun-20 05:00N 50°55' E 001°28'912.6
2018-Jun-20 04:20N 50°47' E 001°24'277 9.2
2018-Jun-18 22:07N 48°51' W 005°06'110.1
2018-Jun-18 21:59N 48°51' W 005°08'710.3
2018-Jun-18 21:20N 48°50' W 005°18'410.6
2018-Jun-18 20:58N 48°49' W 005°24'  
2018-Jun-16 03:59N 40°43' W 009°56'4 6.4
2018-Jun-16 03:26N 40°39' W 009°56'3 6.2
2018-Jun-16 02:59N 40°36' W 009°56'3 6.5
2018-Jun-16 02:30N 40°33' W 009°56'5 6.4
2018-Jun-16 01:48N 40°29' W 009°55'2 6.3
2018-Jun-16 01:30N 40°27' W 009°55'4 6.3
2018-Jun-16 00:49N 40°22' W 009°55'3 6.1
2018-Jun-16 00:21N 40°20' W 009°56'2 6.1
2018-Jun-16 00:00N 40°17' W 009°56'3 6.1
2018-Jun-15 23:30N 40°14' W 009°56'3 6.5
2018-Jun-15 23:00N 40°11' W 009°55'3 6.5
2018-Jun-15 22:30N 40°08' W 009°55'3 6.4
2018-Jun-15 22:00N 40°05' W 009°55'3 6.4
2018-Jun-15 21:30N 40°01' W 009°55'4 6.5
2018-Jun-15 20:57N 39°58' W 009°55'4 6.8
2018-Jun-15 20:25N 39°54' W 009°55'4 6.8
2018-Jun-15 19:47N 39°50' W 009°55'2 7.0
2018-Jun-15 19:30N 39°48' W 009°55'3 7.0
2018-Jun-15 19:00N 39°44' W 009°55'4 7.4
2018-Jun-15 18:30N 39°41' W 009°55'4 7.4
2018-Jun-15 18:00N 39°37' W 009°55'4 7.3
2018-Jun-15 17:30N 39°33' W 009°55'4 7.1
2018-Jun-15 16:59N 39°30' W 009°55'4 7.4
2018-Jun-15 16:29N 39°26' W 009°55'4 7.5
2018-Jun-15 15:59N 39°22' W 009°55'4 7.6
2018-Jun-15 15:30N 39°19' W 009°55'4 7.8
2018-Jun-15 14:58N 39°14' W 009°55'4 8.2
2018-Jun-15 14:30N 39°10' W 009°55'4 8.1
2018-Jun-15 14:00N 39°07' W 009°55'4 7.9
2018-Jun-15 13:30N 39°03' W 009°55'4 8.1
2018-Jun-15 13:00N 38°58' W 009°55'4 8.5
2018-Jun-15 12:30N 38°54' W 009°55'4 8.6
2018-Jun-15 11:59N 38°50' W 009°55'4 8.2
2018-Jun-15 11:30N 38°46' W 009°55'5 8.2
2018-Jun-15 10:53N 38°41' W 009°54'3 7.8
2018-Jun-15 10:30N 38°38' W 009°54'4 7.7
2018-Jun-15 10:00N 38°35' W 009°51'4 7.9
2018-Jun-15 09:30N 38°32' W 009°48'4 8.0
2018-Jun-15 09:00N 38°29' W 009°44'5 8.2
2018-Jun-15 08:21N 38°25' W 009°39'3 8.6
2018-Jun-15 07:57N 38°23' W 009°36'4 8.5
2018-Jun-15 07:30N 38°21' W 009°32'4 8.2
2018-Jun-15 06:59N 38°18' W 009°27'4 8.4
2018-Jun-15 06:30N 38°16' W 009°23'4 8.6
2018-Jun-15 06:00N 38°13' W 009°19'4 8.7
2018-Jun-15 05:30N 38°10' W 009°15'4 8.8
2018-Jun-15 05:00N 38°07' W 009°11'5 9.2
2018-Jun-15 04:30N 38°04' W 009°07'5 9.1
2018-Jun-15 04:00N 38°01' W 009°02'5 9.4
2018-Jun-15 03:30N 37°58' W 008°57'4 8.7
2018-Jun-15 03:00N 37°56' W 008°53'1 2.7
2018-Jun-15 02:30N 37°56' W 008°51'0 0.0
2018-Jun-15 02:00N 37°56' W 008°51'0 0.0
2018-Jun-15 01:30N 37°56' W 008°51'0 0.0
2018-Jun-15 01:00N 37°56' W 008°51'0 0.0
2018-Jun-15 00:30N 37°56' W 008°51'0 0.0
2018-Jun-15 00:00N 37°56' W 008°51'0 0.0
2018-Jun-14 23:30N 37°56' W 008°51'0 0.0
2018-Jun-14 23:00N 37°56' W 008°51'0 0.0
2018-Jun-14 22:30N 37°56' W 008°51'0 0.0
2018-Jun-14 22:00N 37°56' W 008°51'0 0.0
2018-Jun-14 21:30N 37°56' W 008°51'0 0.0
2018-Jun-14 21:00N 37°56' W 008°51'0 0.0
2018-Jun-14 20:30N 37°56' W 008°51'0 0.0
2018-Jun-14 20:00N 37°56' W 008°51'0 0.0
2018-Jun-14 19:30N 37°56' W 008°51'0 0.0
2018-Jun-14 19:00N 37°56' W 008°51'0 0.0
2018-Jun-14 18:30N 37°56' W 008°51'0 0.0
2018-Jun-14 18:00N 37°56' W 008°51'0 0.0
2018-Jun-14 17:30N 37°56' W 008°51'0 0.0
2018-Jun-14 17:00N 37°56' W 008°51'0 0.0
2018-Jun-14 16:30N 37°56' W 008°51'0 0.0
2018-Jun-14 16:00N 37°56' W 008°51'0 0.0
2018-Jun-14 15:30N 37°56' W 008°51'0 0.0
2018-Jun-14 15:00N 37°56' W 008°51'0 0.0
2018-Jun-14 14:30N 37°56' W 008°51'0 0.0
2018-Jun-14 14:00N 37°56' W 008°51'0 0.0
2018-Jun-14 13:30N 37°56' W 008°51'0 0.0
2018-Jun-14 13:00N 37°56' W 008°51'0 0.0
2018-Jun-14 12:30N 37°56' W 008°51'0 0.0
2018-Jun-14 12:00N 37°56' W 008°51'0 0.0
2018-Jun-14 11:30N 37°56' W 008°51'0 0.0
2018-Jun-14 11:00N 37°56' W 008°51'0 0.0
2018-Jun-14 10:30N 37°56' W 008°51'0 0.0
2018-Jun-14 10:00N 37°56' W 008°51'0 0.0
2018-Jun-14 09:30N 37°56' W 008°51'0 0.0
2018-Jun-14 09:00N 37°56' W 008°51'0 0.0
2018-Jun-14 08:30N 37°56' W 008°51'0 0.0
2018-Jun-14 08:00N 37°56' W 008°51'0 0.0
2018-Jun-14 07:30N 37°56' W 008°51'0 0.0
2018-Jun-14 06:57N 37°56' W 008°51'0 0.0
2018-Jun-14 06:30N 37°56' W 008°51'0 0.0
2018-Jun-14 05:57N 37°56' W 008°51'0 0.0
2018-Jun-14 05:30N 37°56' W 008°51'0 0.0
2018-Jun-14 05:00N 37°56' W 008°51'0 0.0
2018-Jun-14 04:30N 37°56' W 008°51'0 0.0
2018-Jun-14 04:00N 37°56' W 008°51'0 0.0
2018-Jun-14 03:30N 37°56' W 008°51'0 0.0
2018-Jun-14 03:00N 37°56' W 008°51'0 0.0
2018-Jun-14 02:30N 37°56' W 008°51'0 0.0
2018-Jun-14 02:00N 37°56' W 008°51'0 0.0
2018-Jun-14 01:30N 37°56' W 008°51'0 0.0
2018-Jun-14 01:00N 37°56' W 008°51'0 0.0
2018-Jun-14 00:30N 37°56' W 008°51'0 0.0
2018-Jun-14 00:00N 37°56' W 008°51'0 0.0
2018-Jun-13 23:30N 37°56' W 008°51'0 0.0
2018-Jun-13 23:00N 37°56' W 008°51'0 0.0
2018-Jun-13 22:27N 37°56' W 008°51'0 0.0
2018-Jun-13 22:00N 37°56' W 008°51'0 0.0
2018-Jun-13 21:30N 37°56' W 008°51'0 0.0
2018-Jun-13 21:00N 37°56' W 008°51'0 0.0
2018-Jun-13 20:30N 37°56' W 008°51'0 0.0
2018-Jun-13 20:00N 37°56' W 008°51'0 0.0
2018-Jun-13 19:30N 37°56' W 008°51'0 0.0
2018-Jun-13 19:00N 37°56' W 008°51'0 0.0
2018-Jun-13 18:30N 37°56' W 008°51'0 0.0
2018-Jun-13 18:00N 37°56' W 008°51'0 0.0
2018-Jun-13 17:30N 37°56' W 008°51'0 0.0
2018-Jun-13 17:00N 37°56' W 008°51'0 0.0
2018-Jun-13 16:30N 37°56' W 008°51'0 0.0
2018-Jun-13 16:00N 37°56' W 008°51'0 0.0
2018-Jun-13 15:30N 37°56' W 008°51'0 0.0
2018-Jun-13 15:00N 37°56' W 008°51'0 0.0
2018-Jun-13 14:30N 37°56' W 008°51'0 0.0
2018-Jun-13 14:00N 37°56' W 008°51'0 0.0
2018-Jun-13 13:30N 37°56' W 008°51'0 0.0
2018-Jun-13 12:57N 37°56' W 008°51'0 0.0
2018-Jun-13 12:30N 37°56' W 008°51'  

Dump ship's entire track history